createdAt,value
2018-10-19T00:01:16.074Z,89.07
2018-10-19T00:03:44.643Z,88.93
2018-10-19T00:06:13.534Z,89.11
2018-10-19T00:08:42.119Z,88.85
2018-10-19T00:11:10.657Z,88.87
2018-10-19T00:13:39.226Z,89.29
2018-10-19T00:16:07.714Z,89.87
2018-10-19T00:18:36.724Z,90.26
2018-10-19T00:21:05.790Z,89.73
2018-10-19T00:23:34.706Z,89.53
2018-10-19T00:26:03.194Z,89.43
2018-10-19T00:28:32.239Z,89.57
2018-10-19T00:31:00.768Z,89.54
2018-10-19T00:33:29.498Z,89.70
2018-10-19T00:35:57.962Z,90.25
2018-10-19T00:38:26.548Z,89.90
2018-10-19T00:40:55.237Z,89.59
2018-10-19T00:43:23.696Z,89.68
2018-10-19T00:45:52.502Z,89.62
2018-10-19T00:48:21.365Z,89.71
2018-10-19T00:50:50.054Z,89.68
2018-10-19T00:53:18.514Z,89.69
2018-10-19T00:55:47.052Z,89.46
2018-10-19T00:58:15.606Z,90.42
2018-10-19T01:00:44.203Z,90.62
2018-10-19T01:03:13.015Z,90.40
2018-10-19T01:05:41.889Z,90.59
2018-10-19T01:08:11.040Z,90.10
2018-10-19T01:10:39.503Z,89.94
2018-10-19T01:13:08.338Z,89.83
2018-10-19T01:15:37.669Z,89.77
2018-10-19T01:18:06.372Z,89.88
2018-10-19T01:20:34.886Z,89.85
2018-10-19T01:23:03.421Z,90.11
2018-10-19T01:25:32.046Z,90.19
2018-10-19T01:28:00.510Z,89.64
2018-10-19T01:30:29.454Z,89.41
2018-10-19T01:32:58.061Z,89.11
2018-10-19T01:35:26.580Z,89.29
2018-10-19T01:37:55.261Z,89.17
2018-10-19T01:40:23.862Z,89.14
2018-10-19T01:42:52.486Z,89.35
2018-10-19T01:45:21.026Z,89.28
2018-10-19T01:47:49.780Z,89.28
2018-10-19T01:50:18.318Z,89.30
2018-10-19T01:52:46.998Z,89.44
2018-10-19T01:55:15.474Z,89.55
2018-10-19T01:57:44.050Z,89.54
2018-10-19T02:00:12.568Z,89.59
2018-10-19T02:02:41.030Z,89.82
2018-10-19T02:05:09.913Z,89.64
2018-10-19T02:07:38.386Z,89.54
2018-10-19T02:10:07.499Z,89.36
2018-10-19T02:12:36.090Z,89.51
2018-10-19T02:15:04.860Z,89.39
2018-10-19T02:17:33.253Z,89.59
2018-10-19T02:20:01.823Z,89.26
2018-10-19T02:22:30.483Z,89.35
2018-10-19T02:24:58.986Z,88.93
2018-10-19T02:27:27.570Z,89.36
2018-10-19T02:29:56.127Z,89.40
2018-10-19T02:32:24.900Z,89.69
2018-10-19T02:34:53.528Z,89.58
2018-10-19T02:37:22.122Z,89.48
2018-10-19T02:39:50.655Z,89.57
2018-10-19T02:42:19.171Z,89.48
2018-10-19T02:44:47.958Z,89.87
2018-10-19T02:47:16.602Z,89.72
2018-10-19T02:49:45.397Z,89.67
2018-10-19T02:52:13.872Z,89.38
2018-10-19T02:54:42.502Z,89.37
2018-10-19T02:57:11.137Z,89.55
2018-10-19T02:59:40.249Z,89.80
2018-10-19T03:02:09.021Z,90.32
2018-10-19T03:04:37.603Z,90.53
2018-10-19T03:07:07.204Z,90.84
2018-10-19T03:09:35.691Z,93.01
2018-10-19T03:12:04.419Z,94.74
2018-10-19T03:14:32.883Z,93.46
2018-10-19T03:17:01.524Z,92.79
2018-10-19T03:19:30.038Z,92.72
2018-10-19T03:21:58.602Z,92.79
2018-10-19T03:24:27.322Z,93.45
2018-10-19T03:26:55.886Z,92.75
2018-10-19T03:29:24.577Z,92.46
2018-10-19T03:31:53.155Z,92.58
2018-10-19T03:34:21.882Z,92.79
2018-10-19T03:36:50.344Z,92.62
2018-10-19T03:39:18.938Z,92.06
2018-10-19T03:41:47.481Z,91.89
2018-10-19T03:44:15.930Z,91.67
2018-10-19T03:46:44.654Z,91.46
2018-10-19T03:49:13.206Z,91.11
2018-10-19T03:51:41.854Z,91.17
2018-10-19T03:54:10.306Z,91.25
2018-10-19T03:56:38.932Z,91.29
2018-10-19T03:59:07.595Z,91.23
2018-10-19T04:01:36.163Z,91.41
2018-10-19T04:04:05.539Z,90.90
2018-10-19T04:06:34.121Z,90.77
2018-10-19T04:09:02.677Z,90.89
2018-10-19T04:11:31.224Z,90.85
2018-10-19T04:13:59.893Z,90.78
2018-10-19T04:16:28.454Z,90.88
2018-10-19T04:18:57.143Z,90.96
2018-10-19T04:21:25.836Z,90.96
2018-10-19T04:23:54.307Z,90.97
2018-10-19T04:26:22.990Z,90.97
2018-10-19T04:28:51.470Z,90.62
2018-10-19T04:31:20.170Z,91.09
2018-10-19T04:33:48.655Z,91.01
2018-10-19T04:36:17.114Z,90.69
2018-10-19T04:38:45.610Z,91.04
2018-10-19T04:41:14.206Z,90.90
2018-10-19T04:43:43.710Z,92.64
2018-10-19T04:46:12.170Z,91.84
2018-10-19T04:48:40.978Z,91.86
2018-10-19T04:51:09.625Z,92.00
2018-10-19T04:53:38.498Z,91.60
2018-10-19T04:56:07.110Z,91.67
2018-10-19T04:58:35.639Z,92.07
2018-10-19T05:01:04.311Z,92.01
2018-10-19T05:03:32.874Z,91.89
2018-10-19T05:06:02.242Z,91.97
2018-10-19T05:08:30.666Z,91.50
2018-10-19T05:10:59.523Z,91.84
2018-10-19T05:13:28.035Z,92.78
2018-10-19T05:15:56.816Z,92.24
2018-10-19T05:18:25.666Z,92.60
2018-10-19T05:20:54.578Z,92.54
2018-10-19T05:23:23.110Z,92.62
2018-10-19T05:25:53.538Z,92.42
2018-10-19T05:28:22.094Z,92.78
2018-10-19T05:30:51.223Z,92.33
2018-10-19T05:33:19.822Z,91.99
2018-10-19T05:35:48.420Z,91.96
2018-10-19T05:38:17.146Z,92.11
2018-10-19T05:40:45.814Z,92.32
2018-10-19T05:43:14.715Z,92.04
2018-10-19T05:45:43.290Z,92.17
2018-10-19T05:48:11.878Z,92.63
2018-10-19T05:50:40.448Z,93.04
2018-10-19T05:53:08.966Z,93.08
2018-10-19T05:55:37.722Z,92.75
2018-10-19T05:58:06.886Z,92.64
2018-10-19T06:00:35.702Z,92.41
2018-10-19T06:03:04.202Z,92.04
2018-10-19T06:05:33.071Z,92.28
2018-10-19T06:08:01.594Z,92.69
2018-10-19T06:10:30.272Z,93.68
2018-10-19T06:12:58.850Z,94.36
2018-10-19T06:15:28.487Z,93.70
2018-10-19T06:17:57.970Z,93.40
2018-10-19T06:20:26.590Z,93.58
2018-10-19T06:22:56.276Z,93.95
2018-10-19T06:25:25.010Z,94.66
2018-10-19T06:27:54.518Z,94.64
2018-10-19T06:30:24.138Z,94.99
2018-10-19T06:32:54.755Z,94.66
2018-10-19T06:35:24.924Z,94.14
2018-10-19T06:37:53.745Z,94.50
2018-10-19T06:40:24.278Z,94.73
2018-10-19T06:42:52.979Z,95.77
2018-10-19T06:45:23.085Z,94.93
2018-10-19T06:47:52.386Z,94.99
2018-10-19T06:50:20.985Z,94.40
2018-10-19T06:52:52.240Z,94.19
2018-10-19T06:55:20.861Z,94.20
2018-10-19T06:57:51.478Z,94.09
2018-10-19T07:00:22.489Z,94.42
2018-10-19T07:02:52.238Z,94.79
2018-10-19T07:05:21.979Z,94.86
2018-10-19T07:07:51.579Z,94.79
2018-10-19T07:10:21.239Z,94.35
2018-10-19T07:12:50.105Z,93.83
2018-10-19T07:15:18.985Z,93.96
2018-10-19T07:17:47.474Z,93.79
2018-10-19T07:20:16.422Z,95.07
2018-10-19T07:22:44.957Z,95.08
2018-10-19T07:25:13.551Z,94.59
2018-10-19T07:27:42.742Z,94.77
2018-10-19T07:30:11.322Z,94.92
2018-10-19T07:32:40.099Z,94.73
2018-10-19T07:35:09.030Z,95.31
2018-10-19T07:37:38.357Z,95.75
2018-10-19T07:40:07.306Z,95.03
2018-10-19T07:42:36.344Z,94.58
2018-10-19T07:45:05.079Z,94.57
2018-10-19T07:47:33.696Z,94.37
2018-10-19T07:50:02.285Z,94.79
2018-10-19T07:52:30.919Z,94.61
2018-10-19T07:54:59.722Z,94.57
2018-10-19T07:57:28.354Z,94.26
2018-10-19T07:59:57.700Z,93.84
2018-10-19T08:02:26.188Z,93.71
2018-10-19T08:04:54.882Z,93.14
2018-10-19T08:07:23.431Z,92.68
2018-10-19T08:09:52.458Z,93.15
2018-10-19T08:12:21.058Z,93.13
2018-10-19T08:14:49.586Z,92.76
2018-10-19T08:17:18.674Z,92.93
2018-10-19T08:19:47.168Z,93.07
2018-10-19T08:22:15.793Z,92.89
2018-10-19T08:24:44.662Z,92.71
2018-10-19T08:27:13.496Z,92.41
2018-10-19T08:29:42.038Z,92.80
2018-10-19T08:32:10.592Z,92.49
2018-10-19T08:34:39.442Z,92.91
2018-10-19T08:37:07.930Z,93.25
2018-10-19T08:39:36.614Z,93.01
2018-10-19T08:42:06.050Z,93.00
2018-10-19T08:44:34.675Z,92.47
2018-10-19T08:47:03.303Z,92.47
2018-10-19T08:49:31.918Z,92.68
2018-10-19T08:52:00.836Z,92.80
2018-10-19T08:54:29.414Z,93.06
2018-10-19T08:56:58.206Z,92.86
2018-10-19T08:59:26.791Z,92.88
2018-10-19T09:01:55.538Z,93.33
2018-10-19T09:04:24.205Z,92.63
2018-10-19T09:06:52.893Z,92.37
2018-10-19T09:09:21.372Z,92.30
2018-10-19T09:11:49.922Z,91.83
2018-10-19T09:15:01.170Z,91.36
2018-10-19T09:17:29.796Z,90.75
2018-10-19T09:19:58.489Z,90.10
2018-10-19T09:22:26.998Z,90.15
2018-10-19T09:24:55.514Z,90.53
2018-10-19T09:27:23.971Z,90.26
2018-10-19T09:29:52.876Z,90.42
2018-10-19T09:32:21.543Z,90.65
2018-10-19T09:34:50.331Z,90.29
2018-10-19T09:37:18.996Z,89.43
2018-10-19T09:39:47.522Z,89.66
2018-10-19T09:42:16.071Z,88.48
2018-10-19T09:44:44.550Z,88.31
2018-10-19T09:47:13.571Z,87.39
2018-10-19T09:49:42.032Z,87.00
2018-10-19T09:52:10.641Z,86.36
2018-10-19T09:54:39.198Z,85.70
2018-10-19T09:57:07.960Z,85.89
2018-10-19T09:59:36.446Z,84.72
2018-10-19T10:02:05.328Z,84.37
2018-10-19T10:04:34.662Z,84.52
2018-10-19T10:07:03.207Z,84.15
2018-10-19T10:09:32.497Z,82.65
2018-10-19T10:12:00.966Z,82.95
2018-10-19T10:14:29.814Z,83.29
2018-10-19T10:16:58.356Z,82.49
2018-10-19T10:19:27.206Z,82.05
2018-10-19T10:21:55.788Z,81.12
2018-10-19T10:24:24.473Z,80.90
2018-10-19T10:26:53.022Z,80.58
2018-10-19T10:29:21.601Z,79.82
2018-10-19T10:31:50.366Z,80.25
2018-10-19T10:34:18.874Z,78.07
2018-10-19T10:36:47.605Z,79.54
2018-10-19T10:39:16.134Z,79.52
2018-10-19T10:41:44.871Z,79.94
2018-10-19T10:44:13.395Z,79.87
2018-10-19T10:46:41.958Z,80.21
2018-10-19T10:49:11.668Z,80.22
2018-10-19T10:51:40.066Z,80.08
2018-10-19T10:54:08.830Z,79.35
2018-10-19T10:56:37.307Z,79.54
2018-10-19T10:59:06.191Z,79.01
2018-10-19T11:01:34.777Z,78.56
2018-10-19T11:04:03.395Z,77.86
2018-10-19T11:06:31.926Z,76.99
2018-10-19T11:09:00.438Z,77.13
2018-10-19T11:11:30.014Z,77.11
2018-10-19T11:13:58.482Z,75.13
2018-10-19T11:16:27.379Z,74.85
2018-10-19T11:18:55.855Z,75.56
2018-10-19T11:21:24.642Z,74.21
2018-10-19T11:23:53.218Z,73.25
2018-10-19T11:26:23.245Z,74.12
2018-10-19T11:28:51.781Z,74.12
2018-10-19T11:31:20.455Z,72.86
2018-10-19T11:33:49.682Z,72.53
2018-10-19T11:36:18.194Z,74.62
2018-10-19T11:38:47.086Z,74.62
2018-10-19T11:41:15.698Z,73.86
2018-10-19T11:43:44.538Z,75.43
2018-10-19T11:46:13.065Z,75.53
2018-10-19T11:48:41.605Z,73.75
2018-10-19T11:51:10.074Z,73.93
2018-10-19T11:53:38.699Z,72.29
2018-10-19T11:56:07.626Z,71.15
2018-10-19T11:58:36.114Z,72.34
2018-10-19T12:01:05.329Z,72.82
2018-10-19T12:03:34.054Z,70.37
2018-10-19T12:06:02.615Z,72.68
2018-10-19T12:08:31.282Z,72.09
2018-10-19T12:10:59.798Z,71.76
2018-10-19T12:13:28.373Z,73.36
2018-10-19T12:15:57.000Z,73.31
2018-10-19T12:18:26.723Z,72.33
2018-10-19T12:20:55.322Z,73.88
2018-10-19T12:23:24.418Z,72.52
2018-10-19T12:25:53.090Z,72.23
2018-10-19T12:28:22.173Z,70.82
2018-10-19T12:30:50.755Z,72.15
2018-10-19T12:33:19.513Z,72.02
2018-10-19T12:35:48.070Z,72.02
2018-10-19T12:38:16.666Z,70.43
2018-10-19T12:40:45.300Z,70.86
2018-10-19T12:43:13.891Z,71.76
2018-10-19T12:46:52.125Z,72.48
2018-10-19T12:49:22.358Z,72.93
2018-10-19T12:51:50.903Z,72.22
2018-10-19T12:54:19.561Z,72.44
2018-10-19T12:56:48.080Z,71.17
2018-10-19T12:59:16.674Z,72.21
2018-10-19T13:01:45.563Z,72.72
2018-10-19T13:04:14.116Z,73.62
2018-10-19T13:06:43.034Z,73.22
2018-10-19T13:09:12.800Z,72.31
2018-10-19T13:11:41.604Z,72.88
2018-10-19T13:14:10.117Z,72.95
2018-10-19T13:16:38.809Z,73.18
2018-10-19T13:19:07.388Z,73.20
2018-10-19T13:21:35.938Z,72.70
2018-10-19T13:24:05.057Z,73.34
2018-10-19T13:28:56.157Z,73.74
2018-10-19T13:31:25.350Z,73.98
2018-10-19T13:33:53.935Z,73.38
2018-10-19T13:36:22.549Z,73.10
2018-10-19T13:38:51.137Z,73.42
2018-10-19T13:41:19.598Z,73.30
2018-10-19T13:43:48.281Z,73.80
2018-10-19T13:46:17.154Z,73.46
2018-10-19T13:48:46.097Z,73.60
2018-10-19T13:51:14.762Z,73.44
2018-10-19T13:53:43.484Z,74.02
2018-10-19T13:56:12.594Z,74.26
2018-10-19T13:58:41.323Z,74.26
2018-10-19T14:01:09.966Z,73.81
2018-10-19T14:03:38.556Z,73.19
2018-10-19T14:06:07.162Z,73.74
2018-10-19T14:08:36.414Z,73.28
2018-10-19T14:11:05.546Z,72.19
2018-10-19T14:13:34.089Z,72.97
2018-10-19T14:16:03.029Z,73.07
2018-10-19T14:18:31.502Z,73.49
2018-10-19T14:21:00.684Z,73.50
2018-10-19T14:23:29.380Z,74.18
2018-10-19T14:25:58.075Z,74.20
2018-10-19T14:28:26.628Z,74.70
2018-10-19T14:30:55.179Z,74.00
2018-10-19T14:33:24.180Z,74.19
2018-10-19T14:35:52.562Z,72.86
2018-10-19T14:38:21.544Z,74.20
2018-10-19T14:40:50.026Z,74.14
2018-10-19T14:43:18.737Z,74.22
2018-10-19T14:45:47.386Z,74.36
2018-10-19T14:48:16.018Z,74.48
2018-10-19T14:50:44.742Z,75.02
2018-10-19T14:53:13.385Z,75.07
2018-10-19T14:55:42.221Z,74.36
2018-10-19T14:58:10.718Z,73.43
2018-10-19T15:00:39.683Z,74.34
2018-10-19T15:03:08.216Z,74.46
2018-10-19T15:05:36.858Z,74.55
2018-10-19T15:08:05.468Z,75.19
2018-10-19T15:10:34.214Z,75.19
2018-10-19T15:13:02.722Z,75.29
2018-10-19T15:15:31.262Z,75.99
2018-10-19T15:18:00.123Z,75.57
2018-10-19T15:20:28.818Z,75.79
2018-10-19T15:22:57.464Z,76.03
2018-10-19T15:25:25.954Z,75.33
2018-10-19T15:27:54.620Z,75.92
2018-10-19T15:30:23.373Z,75.96
2018-10-19T15:32:51.755Z,76.28
2018-10-19T15:35:20.601Z,76.33
2018-10-19T15:37:49.144Z,76.83
2018-10-19T15:40:17.974Z,76.52
2018-10-19T15:42:46.534Z,76.86
2018-10-19T15:45:15.072Z,77.15
2018-10-19T15:47:43.652Z,77.37
2018-10-19T15:50:12.138Z,77.47
2018-10-19T15:52:40.923Z,77.79
2018-10-19T15:55:09.447Z,78.01
2018-10-19T15:57:38.314Z,78.18
2018-10-19T16:00:08.852Z,78.30
2018-10-19T16:02:37.648Z,78.39
2018-10-19T16:05:06.550Z,78.41
2018-10-19T16:07:35.220Z,78.85
2018-10-19T16:10:03.910Z,79.19
2018-10-19T16:12:32.398Z,79.21
2018-10-19T16:15:01.715Z,79.47
2018-10-19T16:17:30.243Z,79.89
2018-10-19T16:19:59.059Z,79.92
2018-10-19T16:22:27.673Z,80.02
2018-10-19T16:24:56.840Z,80.00
2018-10-19T16:27:25.588Z,80.31
2018-10-19T16:29:54.133Z,80.96
2018-10-19T16:32:22.773Z,80.71
2018-10-19T16:34:51.292Z,81.12
2018-10-19T16:37:19.888Z,81.71
2018-10-19T16:39:48.437Z,81.75
2018-10-19T16:42:17.322Z,81.68
2018-10-19T16:44:45.717Z,81.72
2018-10-19T16:47:14.184Z,81.75
2018-10-19T16:49:42.974Z,81.95
2018-10-19T16:52:11.670Z,82.62
2018-10-19T16:54:40.094Z,83.10
2018-10-19T16:57:08.657Z,82.85
2018-10-19T16:59:39.698Z,83.02
2018-10-19T17:02:08.849Z,83.17
2018-10-19T17:04:37.392Z,83.47
2018-10-19T17:07:06.307Z,83.34
2018-10-19T17:09:35.185Z,83.46
2018-10-19T17:12:03.778Z,83.75
2018-10-19T17:14:32.540Z,83.55
2018-10-19T17:17:01.139Z,83.58
2018-10-19T17:19:29.646Z,83.59
2018-10-19T17:21:58.256Z,83.94
2018-10-19T17:24:26.836Z,84.25
2018-10-19T17:26:55.547Z,84.16
2018-10-19T17:29:24.082Z,84.06
2018-10-19T17:31:52.772Z,84.37
2018-10-19T17:34:21.317Z,84.65
2018-10-19T17:36:49.931Z,84.46
2018-10-19T17:39:18.586Z,84.90
2018-10-19T17:41:47.112Z,84.98
2018-10-19T17:44:16.842Z,85.16
2018-10-19T17:46:45.426Z,85.07
2018-10-19T17:49:14.228Z,84.74
2018-10-19T17:51:42.770Z,84.67
2018-10-19T17:54:11.391Z,84.78
2018-10-19T17:56:39.897Z,84.77
2018-10-19T17:59:08.482Z,85.13
2018-10-19T18:01:37.166Z,85.55
2018-10-19T18:04:06.166Z,85.43
2018-10-19T18:06:35.050Z,85.69
2018-10-19T18:09:03.697Z,85.36
2018-10-19T18:11:33.287Z,85.38
2018-10-19T18:14:01.722Z,85.54
2018-10-19T18:16:30.567Z,85.43
2018-10-19T18:18:59.118Z,85.62
2018-10-19T18:21:27.938Z,86.23
2018-10-19T18:23:56.506Z,86.14
2018-10-19T18:26:25.278Z,86.12
2018-10-19T18:28:55.031Z,85.67
2018-10-19T18:31:23.498Z,85.85
2018-10-19T18:33:52.398Z,86.45
2018-10-19T18:36:20.861Z,85.98
2018-10-19T18:38:49.637Z,85.83
2018-10-19T18:41:18.202Z,85.65
2018-10-19T18:43:46.890Z,84.91
2018-10-19T18:46:15.554Z,84.40
2018-10-19T18:48:44.075Z,84.29
2018-10-19T18:51:12.827Z,83.84
2018-10-19T18:53:41.330Z,83.95
2018-10-19T18:56:10.346Z,83.76
2018-10-19T18:58:38.874Z,83.74
2018-10-19T19:01:07.588Z,83.60
2018-10-19T19:03:36.497Z,83.83
2018-10-19T19:06:05.390Z,83.87
2018-10-19T19:08:33.938Z,83.39
2018-10-19T19:11:02.783Z,83.56
2018-10-19T19:13:32.886Z,83.50
2018-10-19T19:16:01.713Z,83.63
2018-10-19T19:18:30.550Z,83.85
2018-10-19T19:20:59.082Z,84.59
2018-10-19T19:23:27.758Z,84.76
2018-10-19T19:26:01.746Z,85.37
2018-10-19T19:28:30.318Z,85.33
2018-10-19T19:30:58.818Z,84.84
2018-10-19T19:33:32.971Z,84.32
2018-10-19T19:36:01.692Z,84.18
2018-10-19T19:38:30.277Z,84.20
2018-10-19T19:41:04.008Z,84.23
2018-10-19T19:43:32.477Z,83.90
2018-10-19T19:46:01.322Z,84.03
2018-10-19T19:48:35.413Z,84.11
2018-10-19T19:51:03.909Z,83.77
2018-10-19T19:53:32.521Z,83.34
2018-10-19T19:56:01.110Z,82.98
2018-10-19T19:58:29.646Z,82.44
2018-10-19T20:00:58.474Z,82.30
2018-10-19T20:03:27.043Z,81.86
2018-10-19T20:05:55.854Z,81.96
2018-10-19T20:08:24.391Z,81.44
2018-10-19T20:10:53.059Z,81.31
2018-10-19T20:13:21.527Z,80.75
2018-10-19T20:15:50.018Z,80.82
2018-10-19T20:18:19.378Z,80.13
2018-10-19T20:20:47.934Z,79.00
2018-10-19T20:23:16.705Z,78.51
2018-10-19T20:25:45.263Z,78.41
2018-10-19T20:28:14.185Z,78.14
2018-10-19T20:30:42.689Z,77.85
2018-10-19T20:33:11.343Z,77.80
2018-10-19T20:35:39.922Z,77.93
2018-10-19T20:38:08.406Z,77.52
2018-10-19T20:40:37.930Z,76.90
2018-10-19T20:43:06.745Z,75.74
2018-10-19T20:45:35.526Z,76.17
2018-10-19T20:48:04.173Z,76.34
2018-10-19T20:50:33.064Z,77.16
2018-10-19T20:53:01.650Z,77.13
2018-10-19T20:55:30.315Z,77.46
2018-10-19T20:57:58.815Z,77.44
2018-10-19T21:00:27.383Z,77.35
2018-10-19T21:02:56.823Z,76.98
2018-10-19T21:05:25.291Z,77.23
2018-10-19T21:07:54.116Z,77.79
2018-10-19T21:10:22.655Z,78.20
2018-10-19T21:12:51.418Z,78.26
2018-10-19T21:15:20.014Z,78.41
2018-10-19T21:17:48.538Z,78.69
2018-10-19T21:20:17.282Z,78.83
2018-10-19T21:22:45.751Z,78.69
2018-10-19T21:25:14.592Z,78.73
2018-10-19T21:27:43.069Z,78.60
2018-10-19T21:30:12.590Z,78.59
2018-10-19T21:32:41.221Z,78.74
2018-10-19T21:35:09.963Z,78.93
2018-10-19T21:37:38.624Z,79.11
2018-10-19T21:40:07.192Z,79.38
2018-10-19T21:42:35.666Z,79.41
2018-10-19T21:45:04.378Z,79.75
2018-10-19T21:47:34.049Z,80.01
2018-10-19T21:50:02.639Z,80.58
2018-10-19T21:52:31.562Z,81.13
2018-10-19T21:55:00.070Z,80.72
2018-10-19T21:57:28.710Z,81.23
2018-10-19T21:59:57.265Z,81.00
2018-10-19T22:02:25.878Z,80.70
2018-10-19T22:04:54.560Z,81.32
2018-10-19T22:07:23.221Z,80.81
2018-10-19T22:09:51.871Z,81.20
2018-10-19T22:12:20.379Z,80.93
2018-10-19T22:14:49.271Z,81.16
2018-10-19T22:17:17.734Z,80.85
2018-10-19T22:19:46.286Z,81.08
2018-10-19T22:22:14.780Z,81.05
2018-10-19T22:24:43.341Z,81.40
2018-10-19T22:27:12.913Z,81.58
2018-10-19T22:29:41.392Z,81.58
2018-10-19T22:32:10.190Z,81.70
2018-10-19T22:34:38.721Z,81.70
2018-10-19T22:37:07.335Z,81.63
2018-10-19T22:39:35.810Z,81.45
2018-10-19T22:42:04.666Z,81.90
2018-10-19T22:44:33.714Z,81.85
2018-10-19T22:47:02.306Z,81.98
2018-10-19T22:49:31.078Z,81.97
2018-10-19T22:51:59.530Z,81.90
2018-10-19T22:54:28.605Z,81.63
2018-10-19T22:56:57.126Z,81.99
2018-10-19T22:59:25.755Z,82.37
2018-10-19T23:01:54.353Z,82.22
2018-10-19T23:04:22.902Z,82.21
2018-10-19T23:06:52.006Z,82.54
2018-10-19T23:09:20.598Z,82.79
2018-10-19T23:11:49.514Z,82.77
2018-10-19T23:14:18.038Z,82.57
2018-10-19T23:16:46.678Z,82.70
2018-10-19T23:19:15.164Z,82.18
2018-10-19T23:21:43.715Z,82.06
2018-10-19T23:24:12.278Z,81.62
2018-10-19T23:26:40.953Z,81.29
2018-10-19T23:29:10.557Z,81.35
2018-10-19T23:31:39.164Z,81.51
2018-10-19T23:34:07.828Z,81.47
2018-10-19T23:36:36.510Z,81.48
2018-10-19T23:39:07.718Z,81.56
2018-10-19T23:41:36.336Z,81.88
2018-10-19T23:44:05.110Z,81.89
2018-10-19T23:46:33.665Z,82.10
2018-10-19T23:49:02.342Z,82.40
2018-10-19T23:51:30.868Z,82.16
2018-10-19T23:53:59.344Z,82.33
2018-10-19T23:56:28.258Z,82.51
2018-10-19T23:58:56.874Z,82.44
